sensor_id;sensor_type;location;lat;lon;timestamp;temperature;humidity
7194;DHT22;3638;48.820;9.244;2023-07-31T00:01:56;16.60;99.90
7194;DHT22;3638;48.820;9.244;2023-07-31T00:04:23;16.40;99.90
7194;DHT22;3638;48.820;9.244;2023-07-31T00:06:51;16.40;99.90
7194;DHT22;3638;48.820;9.244;2023-07-31T00:09:18;16.30;99.90
7194;DHT22;3638;48.820;9.244;2023-07-31T00:11:45;16.30;99.90
7194;DHT22;3638;48.820;9.244;2023-07-31T00:14:12;16.40;99.90
7194;DHT22;3638;48.820;9.244;2023-07-31T00:16:39;16.30;99.90
7194;DHT22;3638;48.820;9.244;2023-07-31T00:19:05;16.40;99.90
7194;DHT22;3638;48.820;9.244;2023-07-31T00:24:01;16.40;99.90
7194;DHT22;3638;48.820;9.244;2023-07-31T00:26:28;16.40;99.90
7194;DHT22;3638;48.820;9.244;2023-07-31T00:31:22;16.60;99.90
7194;DHT22;3638;48.820;9.244;2023-07-31T00:33:49;16.50;99.90
7194;DHT22;3638;48.820;9.244;2023-07-31T00:36:15;16.60;99.90
7194;DHT22;3638;48.820;9.244;2023-07-31T00:38:43;16.50;99.90
7194;DHT22;3638;48.820;9.244;2023-07-31T00:41:11;16.60;99.90
7194;DHT22;3638;48.820;9.244;2023-07-31T00:43:38;16.70;99.90
7194;DHT22;3638;48.820;9.244;2023-07-31T00:46:05;16.70;99.90
7194;DHT22;3638;48.820;9.244;2023-07-31T00:48:32;16.70;99.90
7194;DHT22;3638;48.820;9.244;2023-07-31T00:51:00;16.60;99.90
7194;DHT22;3638;48.820;9.244;2023-07-31T00:53:27;16.60;99.90
7194;DHT22;3638;48.820;9.244;2023-07-31T00:58:23;16.50;99.90
7194;DHT22;3638;48.820;9.244;2023-07-31T01:00:50;16.50;99.90
7194;DHT22;3638;48.820;9.244;2023-07-31T01:03:17;16.50;99.90
7194;DHT22;3638;48.820;9.244;2023-07-31T01:05:53;16.40;99.90
7194;DHT22;3638;48.820;9.244;2023-07-31T01:08:32;16.30;99.90
7194;DHT22;3638;48.820;9.244;2023-07-31T01:11:07;16.30;99.90
7194;DHT22;3638;48.820;9.244;2023-07-31T01:13:41;16.30;99.90
7194;DHT22;3638;48.820;9.244;2023-07-31T01:16:07;16.30;99.90
7194;DHT22;3638;48.820;9.244;2023-07-31T01:18:34;16.30;99.90
7194;DHT22;3638;48.820;9.244;2023-07-31T01:21:12;16.30;99.90
7194;DHT22;3638;48.820;9.244;2023-07-31T01:24:19;16.20;99.90
7194;DHT22;3638;48.820;9.244;2023-07-31T01:26:53;16.10;99.90
7194;DHT22;3638;48.820;9.244;2023-07-31T01:29:29;16.20;99.90
7194;DHT22;3638;48.820;9.244;2023-07-31T01:32:02;16.10;99.90
7194;DHT22;3638;48.820;9.244;2023-07-31T01:34:30;16.20;99.90
7194;DHT22;3638;48.820;9.244;2023-07-31T01:36:57;16.20;99.90
7194;DHT22;3638;48.820;9.244;2023-07-31T01:39:24;16.20;99.90
7194;DHT22;3638;48.820;9.244;2023-07-31T01:41:52;16.20;99.90
7194;DHT22;3638;48.820;9.244;2023-07-31T01:44:19;16.10;99.90
7194;DHT22;3638;48.820;9.244;2023-07-31T01:46:46;16.10;99.90
7194;DHT22;3638;48.820;9.244;2023-07-31T01:49:13;16.10;99.90
7194;DHT22;3638;48.820;9.244;2023-07-31T01:51:40;16.00;99.90
7194;DHT22;3638;48.820;9.244;2023-07-31T01:54:07;16.00;99.90
7194;DHT22;3638;48.820;9.244;2023-07-31T01:56:34;15.90;99.90
7194;DHT22;3638;48.820;9.244;2023-07-31T01:59:02;15.90;99.90
7194;DHT22;3638;48.820;9.244;2023-07-31T02:01:29;15.90;99.90
7194;DHT22;3638;48.820;9.244;2023-07-31T02:03:56;15.90;99.90
7194;DHT22;3638;48.820;9.244;2023-07-31T02:06:23;16.00;99.90
7194;DHT22;3638;48.820;9.244;2023-07-31T02:08:50;15.90;99.90
7194;DHT22;3638;48.820;9.244;2023-07-31T02:11:17;15.90;99.90
7194;DHT22;3638;48.820;9.244;2023-07-31T02:13:43;15.90;99.90
7194;DHT22;3638;48.820;9.244;2023-07-31T02:16:11;15.90;99.90
7194;DHT22;3638;48.820;9.244;2023-07-31T02:18:38;15.90;99.90
7194;DHT22;3638;48.820;9.244;2023-07-31T02:21:05;15.90;99.90
7194;DHT22;3638;48.820;9.244;2023-07-31T02:23:32;15.90;99.90
7194;DHT22;3638;48.820;9.244;2023-07-31T02:25:58;15.90;99.90
7194;DHT22;3638;48.820;9.244;2023-07-31T02:28:25;15.80;99.90
7194;DHT22;3638;48.820;9.244;2023-07-31T02:30:52;15.80;99.90
7194;DHT22;3638;48.820;9.244;2023-07-31T02:33:20;15.90;99.90
7194;DHT22;3638;48.820;9.244;2023-07-31T02:35:47;15.90;99.90
7194;DHT22;3638;48.820;9.244;2023-07-31T02:38:13;15.80;99.90
7194;DHT22;3638;48.820;9.244;2023-07-31T02:40:40;15.80;99.90
7194;DHT22;3638;48.820;9.244;2023-07-31T02:43:07;15.80;99.90
7194;DHT22;3638;48.820;9.244;2023-07-31T02:45:34;15.80;99.90
7194;DHT22;3638;48.820;9.244;2023-07-31T02:48:01;15.80;99.90
7194;DHT22;3638;48.820;9.244;2023-07-31T02:50:29;15.90;99.90
7194;DHT22;3638;48.820;9.244;2023-07-31T02:52:57;15.90;99.90
7194;DHT22;3638;48.820;9.244;2023-07-31T02:57:51;15.70;99.90
7194;DHT22;3638;48.820;9.244;2023-07-31T03:00:19;15.70;99.90
7194;DHT22;3638;48.820;9.244;2023-07-31T03:02:45;15.70;99.90
7194;DHT22;3638;48.820;9.244;2023-07-31T03:05:12;15.70;99.90
7194;DHT22;3638;48.820;9.244;2023-07-31T03:07:41;15.70;99.90
7194;DHT22;3638;48.820;9.244;2023-07-31T03:10:08;15.60;99.90
7194;DHT22;3638;48.820;9.244;2023-07-31T03:12:35;15.60;99.90
7194;DHT22;3638;48.820;9.244;2023-07-31T03:15:02;15.60;99.90
7194;DHT22;3638;48.820;9.244;2023-07-31T03:17:30;15.50;99.90
7194;DHT22;3638;48.820;9.244;2023-07-31T03:19:57;15.50;99.90
7194;DHT22;3638;48.820;9.244;2023-07-31T03:22:23;15.60;99.90
7194;DHT22;3638;48.820;9.244;2023-07-31T03:24:52;15.60;99.90
7194;DHT22;3638;48.820;9.244;2023-07-31T03:29:46;15.50;99.90
7194;DHT22;3638;48.820;9.244;2023-07-31T03:32:15;15.50;99.90
7194;DHT22;3638;48.820;9.244;2023-07-31T03:34:42;15.60;99.90
7194;DHT22;3638;48.820;9.244;2023-07-31T03:37:08;15.70;99.90
7194;DHT22;3638;48.820;9.244;2023-07-31T03:39:35;15.60;99.90
7194;DHT22;3638;48.820;9.244;2023-07-31T03:42:04;15.50;99.90
7194;DHT22;3638;48.820;9.244;2023-07-31T03:44:31;15.50;99.90
7194;DHT22;3638;48.820;9.244;2023-07-31T03:46:58;15.60;99.90
7194;DHT22;3638;48.820;9.244;2023-07-31T03:51:53;15.60;99.90
7194;DHT22;3638;48.820;9.244;2023-07-31T03:54:20;15.50;99.90
7194;DHT22;3638;48.820;9.244;2023-07-31T03:56:47;15.50;99.90
7194;DHT22;3638;48.820;9.244;2023-07-31T03:59:15;15.50;99.90
7194;DHT22;3638;48.820;9.244;2023-07-31T04:01:42;15.60;99.90
7194;DHT22;3638;48.820;9.244;2023-07-31T04:04:08;15.70;99.90
7194;DHT22;3638;48.820;9.244;2023-07-31T04:06:35;15.80;99.90
7194;DHT22;3638;48.820;9.244;2023-07-31T04:09:02;15.90;99.90
7194;DHT22;3638;48.820;9.244;2023-07-31T04:11:29;16.00;99.90
7194;DHT22;3638;48.820;9.244;2023-07-31T04:13:56;16.00;99.90
7194;DHT22;3638;48.820;9.244;2023-07-31T04:16:24;16.10;99.90
7194;DHT22;3638;48.820;9.244;2023-07-31T04:18:51;16.10;99.90
7194;DHT22;3638;48.820;9.244;2023-07-31T04:21:18;16.20;99.90
7194;DHT22;3638;48.820;9.244;2023-07-31T04:23:45;16.20;99.90
7194;DHT22;3638;48.820;9.244;2023-07-31T04:26:12;16.30;99.90
7194;DHT22;3638;48.820;9.244;2023-07-31T04:28:38;16.30;99.90
7194;DHT22;3638;48.820;9.244;2023-07-31T04:31:05;16.30;99.90
7194;DHT22;3638;48.820;9.244;2023-07-31T04:33:33;16.40;99.90
7194;DHT22;3638;48.820;9.244;2023-07-31T04:36:00;16.50;99.90
7194;DHT22;3638;48.820;9.244;2023-07-31T04:38:27;16.50;99.90
7194;DHT22;3638;48.820;9.244;2023-07-31T04:40:54;16.60;99.90
7194;DHT22;3638;48.820;9.244;2023-07-31T04:43:21;16.70;99.90
7194;DHT22;3638;48.820;9.244;2023-07-31T04:45:48;16.70;99.90
7194;DHT22;3638;48.820;9.244;2023-07-31T04:48:15;16.80;99.90
7194;DHT22;3638;48.820;9.244;2023-07-31T04:50:44;16.80;99.90
7194;DHT22;3638;48.820;9.244;2023-07-31T04:53:10;16.90;99.90
7194;DHT22;3638;48.820;9.244;2023-07-31T04:55:37;17.10;99.90
7194;DHT22;3638;48.820;9.244;2023-07-31T04:58:05;17.10;99.90
7194;DHT22;3638;48.820;9.244;2023-07-31T05:00:32;17.10;99.90
7194;DHT22;3638;48.820;9.244;2023-07-31T05:02:58;17.30;99.90
7194;DHT22;3638;48.820;9.244;2023-07-31T05:05:25;17.20;99.90
7194;DHT22;3638;48.820;9.244;2023-07-31T05:07:53;17.30;99.90
7194;DHT22;3638;48.820;9.244;2023-07-31T05:10:20;17.30;99.90
7194;DHT22;3638;48.820;9.244;2023-07-31T05:12:47;17.60;99.90
7194;DHT22;3638;48.820;9.244;2023-07-31T05:15:14;17.60;99.90
7194;DHT22;3638;48.820;9.244;2023-07-31T05:17:41;17.30;99.90
7194;DHT22;3638;48.820;9.244;2023-07-31T05:20:08;17.30;99.90
7194;DHT22;3638;48.820;9.244;2023-07-31T05:22:36;17.40;99.90
7194;DHT22;3638;48.820;9.244;2023-07-31T05:25:05;17.40;99.90
7194;DHT22;3638;48.820;9.244;2023-07-31T05:27:32;17.30;99.90
7194;DHT22;3638;48.820;9.244;2023-07-31T05:29:59;17.20;99.90
7194;DHT22;3638;48.820;9.244;2023-07-31T05:32:26;17.40;99.90
7194;DHT22;3638;48.820;9.244;2023-07-31T05:34:53;17.30;99.90
7194;DHT22;3638;48.820;9.244;2023-07-31T05:37:20;17.70;99.90
7194;DHT22;3638;48.820;9.244;2023-07-31T05:39:47;17.70;99.90
7194;DHT22;3638;48.820;9.244;2023-07-31T05:42:15;17.70;99.90
7194;DHT22;3638;48.820;9.244;2023-07-31T05:44:42;17.80;99.90
7194;DHT22;3638;48.820;9.244;2023-07-31T05:47:09;18.10;99.90
7194;DHT22;3638;48.820;9.244;2023-07-31T05:49:36;18.20;99.90
7194;DHT22;3638;48.820;9.244;2023-07-31T05:52:03;18.10;99.90
7194;DHT22;3638;48.820;9.244;2023-07-31T05:54:31;18.20;99.90
7194;DHT22;3638;48.820;9.244;2023-07-31T05:56:58;18.20;99.90
7194;DHT22;3638;48.820;9.244;2023-07-31T05:59:27;18.30;99.90
7194;DHT22;3638;48.820;9.244;2023-07-31T06:01:54;18.50;99.90
7194;DHT22;3638;48.820;9.244;2023-07-31T06:04:20;18.50;99.90
7194;DHT22;3638;48.820;9.244;2023-07-31T06:06:49;18.80;99.90
7194;DHT22;3638;48.820;9.244;2023-07-31T06:09:16;19.00;99.90
7194;DHT22;3638;48.820;9.244;2023-07-31T06:11:43;19.10;99.90
7194;DHT22;3638;48.820;9.244;2023-07-31T06:14:09;20.70;99.90
7194;DHT22;3638;48.820;9.244;2023-07-31T06:16:38;18.90;99.90
7194;DHT22;3638;48.820;9.244;2023-07-31T06:19:04;19.20;99.90
7194;DHT22;3638;48.820;9.244;2023-07-31T06:21:32;19.60;99.90
7194;DHT22;3638;48.820;9.244;2023-07-31T06:23:59;20.00;99.90
7194;DHT22;3638;48.820;9.244;2023-07-31T06:26:26;20.10;99.90
7194;DHT22;3638;48.820;9.244;2023-07-31T06:28:53;20.20;99.90
7194;DHT22;3638;48.820;9.244;2023-07-31T06:31:20;20.30;99.90
7194;DHT22;3638;48.820;9.244;2023-07-31T06:33:49;20.20;99.90
7194;DHT22;3638;48.820;9.244;2023-07-31T06:36:17;20.50;99.90
7194;DHT22;3638;48.820;9.244;2023-07-31T06:38:44;20.60;99.90
7194;DHT22;3638;48.820;9.244;2023-07-31T06:41:10;20.60;99.90
7194;DHT22;3638;48.820;9.244;2023-07-31T06:43:37;20.50;99.90
7194;DHT22;3638;48.820;9.244;2023-07-31T06:46:05;20.40;99.90
7194;DHT22;3638;48.820;9.244;2023-07-31T06:48:32;20.30;99.90
7194;DHT22;3638;48.820;9.244;2023-07-31T06:51:00;20.30;99.90
7194;DHT22;3638;48.820;9.244;2023-07-31T06:53:28;20.40;99.90
7194;DHT22;3638;48.820;9.244;2023-07-31T06:55:55;20.70;99.90
7194;DHT22;3638;48.820;9.244;2023-07-31T06:58:22;21.10;99.90
7194;DHT22;3638;48.820;9.244;2023-07-31T07:00:48;21.40;99.90
7194;DHT22;3638;48.820;9.244;2023-07-31T07:03:17;21.40;99.90
7194;DHT22;3638;48.820;9.244;2023-07-31T07:05:45;21.50;99.90
7194;DHT22;3638;48.820;9.244;2023-07-31T07:08:14;21.40;99.90
7194;DHT22;3638;48.820;9.244;2023-07-31T07:13:08;21.70;99.90
7194;DHT22;3638;48.820;9.244;2023-07-31T07:15:35;22.00;99.90
7194;DHT22;3638;48.820;9.244;2023-07-31T07:18:02;22.10;99.90
7194;DHT22;3638;48.820;9.244;2023-07-31T07:20:29;22.10;99.90
7194;DHT22;3638;48.820;9.244;2023-07-31T07:22:56;22.20;99.90
7194;DHT22;3638;48.820;9.244;2023-07-31T07:25:24;22.20;99.90
7194;DHT22;3638;48.820;9.244;2023-07-31T07:27:51;22.70;99.90
7194;DHT22;3638;48.820;9.244;2023-07-31T07:30:18;22.70;99.90
7194;DHT22;3638;48.820;9.244;2023-07-31T07:32:45;22.40;99.90
7194;DHT22;3638;48.820;9.244;2023-07-31T07:35:12;22.50;99.90
7194;DHT22;3638;48.820;9.244;2023-07-31T07:37:39;22.10;99.90
7194;DHT22;3638;48.820;9.244;2023-07-31T07:40:07;22.20;99.90
7194;DHT22;3638;48.820;9.244;2023-07-31T07:42:36;22.30;99.90
7194;DHT22;3638;48.820;9.244;2023-07-31T07:45:03;22.00;99.90
7194;DHT22;3638;48.820;9.244;2023-07-31T07:49:58;21.80;99.90
7194;DHT22;3638;48.820;9.244;2023-07-31T07:52:25;22.10;99.90
7194;DHT22;3638;48.820;9.244;2023-07-31T07:54:52;22.50;99.90
7194;DHT22;3638;48.820;9.244;2023-07-31T07:57:19;22.60;99.90
7194;DHT22;3638;48.820;9.244;2023-07-31T07:59:47;22.70;99.90
7194;DHT22;3638;48.820;9.244;2023-07-31T08:02:14;22.80;99.90
7194;DHT22;3638;48.820;9.244;2023-07-31T08:04:40;23.30;99.90
7194;DHT22;3638;48.820;9.244;2023-07-31T08:07:07;23.30;99.90
7194;DHT22;3638;48.820;9.244;2023-07-31T08:09:34;24.00;99.90
7194;DHT22;3638;48.820;9.244;2023-07-31T08:12:01;24.10;99.90
7194;DHT22;3638;48.820;9.244;2023-07-31T08:14:29;24.40;99.90
7194;DHT22;3638;48.820;9.244;2023-07-31T08:16:57;24.40;99.90
7194;DHT22;3638;48.820;9.244;2023-07-31T08:19:24;24.30;99.90
7194;DHT22;3638;48.820;9.244;2023-07-31T08:21:51;24.20;99.90
7194;DHT22;3638;48.820;9.244;2023-07-31T08:24:18;24.20;99.90
7194;DHT22;3638;48.820;9.244;2023-07-31T08:26:45;24.10;99.90
7194;DHT22;3638;48.820;9.244;2023-07-31T08:29:12;24.20;99.90
7194;DHT22;3638;48.820;9.244;2023-07-31T08:31:38;24.00;99.90
7194;DHT22;3638;48.820;9.244;2023-07-31T08:34:07;24.40;99.90
7194;DHT22;3638;48.820;9.244;2023-07-31T08:36:33;24.40;99.90
7194;DHT22;3638;48.820;9.244;2023-07-31T08:39:00;24.70;99.40
7194;DHT22;3638;48.820;9.244;2023-07-31T08:41:27;24.50;99.70
7194;DHT22;3638;48.820;9.244;2023-07-31T08:43:55;24.40;99.70
7194;DHT22;3638;48.820;9.244;2023-07-31T08:46:23;24.40;99.30
7194;DHT22;3638;48.820;9.244;2023-07-31T08:48:51;24.30;99.70
7194;DHT22;3638;48.820;9.244;2023-07-31T08:51:20;24.30;99.50
7194;DHT22;3638;48.820;9.244;2023-07-31T08:53:47;24.30;99.70
7194;DHT22;3638;48.820;9.244;2023-07-31T08:56:14;24.00;99.70
7194;DHT22;3638;48.820;9.244;2023-07-31T08:58:43;24.10;99.20
7194;DHT22;3638;48.820;9.244;2023-07-31T09:01:10;24.10;99.40
7194;DHT22;3638;48.820;9.244;2023-07-31T09:03:39;24.40;99.80
7194;DHT22;3638;48.820;9.244;2023-07-31T09:06:07;24.50;99.90
7194;DHT22;3638;48.820;9.244;2023-07-31T09:08:35;24.50;99.70
7194;DHT22;3638;48.820;9.244;2023-07-31T09:11:05;24.50;99.80
7194;DHT22;3638;48.820;9.244;2023-07-31T09:13:33;24.70;98.40
7194;DHT22;3638;48.820;9.244;2023-07-31T09:16:00;24.60;98.70
7194;DHT22;3638;48.820;9.244;2023-07-31T09:18:26;25.30;98.10
7194;DHT22;3638;48.820;9.244;2023-07-31T09:21:03;25.40;98.40
7194;DHT22;3638;48.820;9.244;2023-07-31T09:23:43;25.40;97.50
7194;DHT22;3638;48.820;9.244;2023-07-31T09:26:11;25.40;98.00
7194;DHT22;3638;48.820;9.244;2023-07-31T09:28:38;25.90;96.20
7194;DHT22;3638;48.820;9.244;2023-07-31T09:31:05;25.80;96.50
7194;DHT22;3638;48.820;9.244;2023-07-31T09:33:31;24.20;96.40
7194;DHT22;3638;48.820;9.244;2023-07-31T09:35:58;26.10;97.30
7194;DHT22;3638;48.820;9.244;2023-07-31T09:38:27;26.20;96.40
7194;DHT22;3638;48.820;9.244;2023-07-31T09:40:55;26.30;96.60
7194;DHT22;3638;48.820;9.244;2023-07-31T09:43:25;26.20;95.90
7194;DHT22;3638;48.820;9.244;2023-07-31T09:45:55;25.80;95.90
7194;DHT22;3638;48.820;9.244;2023-07-31T09:48:24;24.70;97.90
7194;DHT22;3638;48.820;9.244;2023-07-31T09:50:53;24.70;97.60
7194;DHT22;3638;48.820;9.244;2023-07-31T09:53:28;24.40;98.00
7194;DHT22;3638;48.820;9.244;2023-07-31T09:55:58;24.70;97.90
7194;DHT22;3638;48.820;9.244;2023-07-31T09:58:28;24.60;97.30
7194;DHT22;3638;48.820;9.244;2023-07-31T10:00:57;24.70;97.30
7194;DHT22;3638;48.820;9.244;2023-07-31T10:03:26;24.40;98.10
7194;DHT22;3638;48.820;9.244;2023-07-31T10:05:55;24.60;97.80
7194;DHT22;3638;48.820;9.244;2023-07-31T10:08:27;24.70;97.90
7194;DHT22;3638;48.820;9.244;2023-07-31T10:10:58;24.70;98.20
7194;DHT22;3638;48.820;9.244;2023-07-31T10:13:27;24.60;98.30
7194;DHT22;3638;48.820;9.244;2023-07-31T10:15:58;24.20;98.70
7194;DHT22;3638;48.820;9.244;2023-07-31T10:18:26;24.10;97.40
7194;DHT22;3638;48.820;9.244;2023-07-31T10:20:54;24.00;97.90
7194;DHT22;3638;48.820;9.244;2023-07-31T10:23:22;23.90;98.00
7194;DHT22;3638;48.820;9.244;2023-07-31T10:25:53;24.00;98.50
7194;DHT22;3638;48.820;9.244;2023-07-31T10:28:22;24.20;97.80
7194;DHT22;3638;48.820;9.244;2023-07-31T10:30:50;24.20;97.70
7194;DHT22;3638;48.820;9.244;2023-07-31T10:33:19;24.20;98.70
7194;DHT22;3638;48.820;9.244;2023-07-31T10:35:47;24.10;97.90
7194;DHT22;3638;48.820;9.244;2023-07-31T10:38:14;24.50;98.20
7194;DHT22;3638;48.820;9.244;2023-07-31T10:40:41;24.50;97.70
7194;DHT22;3638;48.820;9.244;2023-07-31T10:43:08;24.60;98.00
7194;DHT22;3638;48.820;9.244;2023-07-31T10:45:42;24.70;97.90
7194;DHT22;3638;48.820;9.244;2023-07-31T10:48:13;24.60;98.60
7194;DHT22;3638;48.820;9.244;2023-07-31T10:50:47;24.80;97.80
7194;DHT22;3638;48.820;9.244;2023-07-31T10:53:22;25.00;97.60
7194;DHT22;3638;48.820;9.244;2023-07-31T10:55:57;24.50;98.10
7194;DHT22;3638;48.820;9.244;2023-07-31T10:58:24;24.80;97.90
7194;DHT22;3638;48.820;9.244;2023-07-31T11:00:57;24.90;97.80
7194;DHT22;3638;48.820;9.244;2023-07-31T11:03:26;25.10;96.50
7194;DHT22;3638;48.820;9.244;2023-07-31T11:06:00;24.70;96.70
7194;DHT22;3638;48.820;9.244;2023-07-31T11:08:30;25.40;96.10
7194;DHT22;3638;48.820;9.244;2023-07-31T11:11:08;25.50;95.70
7194;DHT22;3638;48.820;9.244;2023-07-31T11:13:41;25.40;96.20
7194;DHT22;3638;48.820;9.244;2023-07-31T11:16:10;25.30;96.70
7194;DHT22;3638;48.820;9.244;2023-07-31T11:18:39;25.20;96.90
7194;DHT22;3638;48.820;9.244;2023-07-31T11:21:07;25.20;97.30
7194;DHT22;3638;48.820;9.244;2023-07-31T11:23:36;25.20;96.80
7194;DHT22;3638;48.820;9.244;2023-07-31T11:26:05;25.10;96.60
7194;DHT22;3638;48.820;9.244;2023-07-31T11:28:33;25.60;96.40
7194;DHT22;3638;48.820;9.244;2023-07-31T11:31:01;25.60;96.50
7194;DHT22;3638;48.820;9.244;2023-07-31T11:33:30;26.00;95.90
7194;DHT22;3638;48.820;9.244;2023-07-31T11:35:57;26.50;95.60
7194;DHT22;3638;48.820;9.244;2023-07-31T11:38:25;26.30;95.20
7194;DHT22;3638;48.820;9.244;2023-07-31T11:40:53;26.40;95.50
7194;DHT22;3638;48.820;9.244;2023-07-31T11:43:22;26.40;94.80
7194;DHT22;3638;48.820;9.244;2023-07-31T11:45:51;26.30;94.30
7194;DHT22;3638;48.820;9.244;2023-07-31T11:48:20;26.10;95.30
7194;DHT22;3638;48.820;9.244;2023-07-31T11:50:50;25.60;95.20
7194;DHT22;3638;48.820;9.244;2023-07-31T11:53:22;25.40;96.40
7194;DHT22;3638;48.820;9.244;2023-07-31T11:55:51;25.30;95.80
7194;DHT22;3638;48.820;9.244;2023-07-31T11:58:18;25.00;96.80
7194;DHT22;3638;48.820;9.244;2023-07-31T12:00:46;25.10;97.20
7194;DHT22;3638;48.820;9.244;2023-07-31T12:03:13;25.40;96.30
7194;DHT22;3638;48.820;9.244;2023-07-31T12:05:41;25.30;96.70
7194;DHT22;3638;48.820;9.244;2023-07-31T12:08:12;25.40;95.70
7194;DHT22;3638;48.820;9.244;2023-07-31T12:10:39;25.30;96.00
7194;DHT22;3638;48.820;9.244;2023-07-31T12:13:10;25.00;96.20
7194;DHT22;3638;48.820;9.244;2023-07-31T12:15:40;24.80;96.60
7194;DHT22;3638;48.820;9.244;2023-07-31T12:18:09;24.60;96.80
7194;DHT22;3638;48.820;9.244;2023-07-31T12:20:41;24.70;96.90
7194;DHT22;3638;48.820;9.244;2023-07-31T12:23:15;24.90;97.20
7194;DHT22;3638;48.820;9.244;2023-07-31T12:25:43;24.80;97.20
7194;DHT22;3638;48.820;9.244;2023-07-31T12:28:10;24.90;97.10
7194;DHT22;3638;48.820;9.244;2023-07-31T12:30:41;24.60;97.10
7194;DHT22;3638;48.820;9.244;2023-07-31T12:33:14;24.60;97.30
7194;DHT22;3638;48.820;9.244;2023-07-31T12:35:43;24.70;96.90
7194;DHT22;3638;48.820;9.244;2023-07-31T12:38:11;24.90;96.80
7194;DHT22;3638;48.820;9.244;2023-07-31T12:40:41;25.00;97.10
7194;DHT22;3638;48.820;9.244;2023-07-31T12:43:08;24.80;97.20
7194;DHT22;3638;48.820;9.244;2023-07-31T12:45:35;24.70;97.50
7194;DHT22;3638;48.820;9.244;2023-07-31T12:48:02;24.90;96.80
7194;DHT22;3638;48.820;9.244;2023-07-31T12:50:29;24.90;97.10
7194;DHT22;3638;48.820;9.244;2023-07-31T12:52:57;24.90;97.20
7194;DHT22;3638;48.820;9.244;2023-07-31T12:55:24;25.00;95.80
7194;DHT22;3638;48.820;9.244;2023-07-31T12:57:52;22.40;95.60
7194;DHT22;3638;48.820;9.244;2023-07-31T13:00:19;24.60;96.20
7194;DHT22;3638;48.820;9.244;2023-07-31T13:02:46;24.50;96.50
7194;DHT22;3638;48.820;9.244;2023-07-31T13:05:13;24.70;96.80
7194;DHT22;3638;48.820;9.244;2023-07-31T13:07:40;24.20;96.70
7194;DHT22;3638;48.820;9.244;2023-07-31T13:10:08;24.20;97.00
7194;DHT22;3638;48.820;9.244;2023-07-31T13:12:35;24.10;96.80
7194;DHT22;3638;48.820;9.244;2023-07-31T13:15:04;24.10;97.20
7194;DHT22;3638;48.820;9.244;2023-07-31T13:17:32;23.90;97.10
7194;DHT22;3638;48.820;9.244;2023-07-31T13:20:00;23.90;97.40
7194;DHT22;3638;48.820;9.244;2023-07-31T13:22:27;23.90;98.20
7194;DHT22;3638;48.820;9.244;2023-07-31T13:24:54;23.90;97.50
7194;DHT22;3638;48.820;9.244;2023-07-31T13:27:21;24.00;98.30
7194;DHT22;3638;48.820;9.244;2023-07-31T13:29:48;24.10;97.20
7194;DHT22;3638;48.820;9.244;2023-07-31T13:32:17;24.00;97.20
7194;DHT22;3638;48.820;9.244;2023-07-31T13:34:45;24.00;97.00
7194;DHT22;3638;48.820;9.244;2023-07-31T13:37:12;24.20;97.50
7194;DHT22;3638;48.820;9.244;2023-07-31T13:39:39;24.40;97.40
7194;DHT22;3638;48.820;9.244;2023-07-31T13:42:07;24.60;97.80
7194;DHT22;3638;48.820;9.244;2023-07-31T13:44:37;24.70;96.90
7194;DHT22;3638;48.820;9.244;2023-07-31T13:47:04;24.70;97.60
7194;DHT22;3638;48.820;9.244;2023-07-31T13:49:33;24.90;97.10
7194;DHT22;3638;48.820;9.244;2023-07-31T13:52:00;25.40;96.80
7194;DHT22;3638;48.820;9.244;2023-07-31T13:54:27;25.20;96.80
7194;DHT22;3638;48.820;9.244;2023-07-31T13:56:54;25.10;96.60
7194;DHT22;3638;48.820;9.244;2023-07-31T13:59:21;25.30;96.60
7194;DHT22;3638;48.820;9.244;2023-07-31T14:01:48;25.00;96.40
7194;DHT22;3638;48.820;9.244;2023-07-31T14:04:16;25.10;97.00
7194;DHT22;3638;48.820;9.244;2023-07-31T14:06:45;25.30;97.10
7194;DHT22;3638;48.820;9.244;2023-07-31T14:09:13;25.30;96.50
7194;DHT22;3638;48.820;9.244;2023-07-31T14:11:40;25.30;96.30
7194;DHT22;3638;48.820;9.244;2023-07-31T14:14:08;25.20;96.50
7194;DHT22;3638;48.820;9.244;2023-07-31T14:16:35;25.10;96.60
7194;DHT22;3638;48.820;9.244;2023-07-31T14:19:02;25.20;97.10
7194;DHT22;3638;48.820;9.244;2023-07-31T14:21:29;25.70;96.90
7194;DHT22;3638;48.820;9.244;2023-07-31T14:23:57;25.80;96.80
7194;DHT22;3638;48.820;9.244;2023-07-31T14:26:24;25.90;95.90
7194;DHT22;3638;48.820;9.244;2023-07-31T14:28:51;25.60;95.60
7194;DHT22;3638;48.820;9.244;2023-07-31T14:31:18;25.60;96.30
7194;DHT22;3638;48.820;9.244;2023-07-31T14:33:45;25.70;96.60
7194;DHT22;3638;48.820;9.244;2023-07-31T14:36:11;25.70;96.70
7194;DHT22;3638;48.820;9.244;2023-07-31T14:38:38;25.90;96.30
7194;DHT22;3638;48.820;9.244;2023-07-31T14:41:06;25.90;95.90
7194;DHT22;3638;48.820;9.244;2023-07-31T14:43:33;26.00;96.00
7194;DHT22;3638;48.820;9.244;2023-07-31T14:46:00;25.70;96.40
7194;DHT22;3638;48.820;9.244;2023-07-31T14:48:27;25.90;96.50
7194;DHT22;3638;48.820;9.244;2023-07-31T14:50:54;25.90;95.80
7194;DHT22;3638;48.820;9.244;2023-07-31T14:53:21;25.70;95.80
7194;DHT22;3638;48.820;9.244;2023-07-31T14:55:48;25.80;96.70
7194;DHT22;3638;48.820;9.244;2023-07-31T14:58:16;26.00;96.50
7194;DHT22;3638;48.820;9.244;2023-07-31T15:00:43;26.00;96.70
7194;DHT22;3638;48.820;9.244;2023-07-31T15:03:10;26.40;95.70
7194;DHT22;3638;48.820;9.244;2023-07-31T15:05:37;26.20;96.00
7194;DHT22;3638;48.820;9.244;2023-07-31T15:08:04;25.90;95.60
7194;DHT22;3638;48.820;9.244;2023-07-31T15:10:31;25.90;96.00
7194;DHT22;3638;48.820;9.244;2023-07-31T15:12:58;26.00;95.40
7194;DHT22;3638;48.820;9.244;2023-07-31T15:15:28;26.10;95.50
7194;DHT22;3638;48.820;9.244;2023-07-31T15:17:54;26.10;95.60
7194;DHT22;3638;48.820;9.244;2023-07-31T15:20:22;26.20;94.80
7194;DHT22;3638;48.820;9.244;2023-07-31T15:22:49;26.40;95.40
7194;DHT22;3638;48.820;9.244;2023-07-31T15:25:16;26.20;94.90
7194;DHT22;3638;48.820;9.244;2023-07-31T15:27:43;25.70;95.40
7194;DHT22;3638;48.820;9.244;2023-07-31T15:30:10;25.60;96.10
7194;DHT22;3638;48.820;9.244;2023-07-31T15:32:39;25.60;96.30
7194;DHT22;3638;48.820;9.244;2023-07-31T15:35:06;25.80;95.70
7194;DHT22;3638;48.820;9.244;2023-07-31T15:37:33;26.10;95.50
7194;DHT22;3638;48.820;9.244;2023-07-31T15:40:00;26.10;94.80
7194;DHT22;3638;48.820;9.244;2023-07-31T15:42:27;26.10;94.60
7194;DHT22;3638;48.820;9.244;2023-07-31T15:44:54;25.90;95.20
7194;DHT22;3638;48.820;9.244;2023-07-31T15:47:21;26.10;95.00
7194;DHT22;3638;48.820;9.244;2023-07-31T15:49:49;26.00;94.40
7194;DHT22;3638;48.820;9.244;2023-07-31T15:52:16;25.80;94.90
7194;DHT22;3638;48.820;9.244;2023-07-31T15:54:43;25.90;94.70
7194;DHT22;3638;48.820;9.244;2023-07-31T15:57:10;25.70;95.00
7194;DHT22;3638;48.820;9.244;2023-07-31T15:59:37;25.40;95.30
7194;DHT22;3638;48.820;9.244;2023-07-31T16:02:04;25.20;95.20
7194;DHT22;3638;48.820;9.244;2023-07-31T16:04:31;25.20;95.50
7194;DHT22;3638;48.820;9.244;2023-07-31T16:06:59;25.00;95.30
7194;DHT22;3638;48.820;9.244;2023-07-31T16:09:26;25.10;96.20
7194;DHT22;3638;48.820;9.244;2023-07-31T16:11:53;25.30;96.30
7194;DHT22;3638;48.820;9.244;2023-07-31T16:14:20;25.20;95.70
7194;DHT22;3638;48.820;9.244;2023-07-31T16:16:47;25.20;95.90
7194;DHT22;3638;48.820;9.244;2023-07-31T16:19:14;25.10;96.40
7194;DHT22;3638;48.820;9.244;2023-07-31T16:21:41;25.10;96.30
7194;DHT22;3638;48.820;9.244;2023-07-31T16:24:09;25.00;95.80
7194;DHT22;3638;48.820;9.244;2023-07-31T16:26:36;24.90;96.60